Time;durP1;ratioP1;P1;durP2;ratioP2;P2;SDS_P1;SDS_P2;PMS_P1;PMS_P2;Temp;Humidity;BMP_temperature;BMP_pressure;BME280_temperature;BME280_humidity;BME280_pressure;Samples;Min_cycle;Max_cycle;Signal;HPM_P1;HPM_P2
2022/07/11 00:00:16;;;;;;;2.53;1.70;;;13.60;99.90;;;;;;5068778;28;20851;-70
2022/07/11 00:02:43;;;;;;;2.27;1.90;;;13.60;99.90;;;;;;5069999;28;20470;-71
2022/07/11 00:05:10;;;;;;;1.50;1.40;;;13.60;99.90;;;;;;5069563;28;20586;-70
2022/07/11 00:07:39;;;;;;;3.27;1.67;;;13.60;99.90;;;;;;5070185;28;20467;-71
2022/07/11 00:10:06;;;;;;;1.93;1.60;;;13.60;99.90;;;;;;5069683;28;20847;-71
2022/07/11 00:12:34;;;;;;;2.43;1.70;;;13.60;99.90;;;;;;5069890;28;20463;-70
2022/07/11 00:15:01;;;;;;;3.20;1.87;;;13.60;99.90;;;;;;5069890;28;21106;-71
2022/07/11 00:17:28;;;;;;;2.97;1.60;;;13.60;99.90;;;;;;5070744;28;20462;-71
2022/07/11 00:19:54;;;;;;;1.67;1.57;;;13.60;99.90;;;;;;5069940;28;20462;-71
2022/07/11 00:22:21;;;;;;;2.00;1.70;;;13.70;99.90;;;;;;5069604;28;20506;-71
2022/07/11 00:24:49;;;;;;;1.40;1.30;;;13.80;99.90;;;;;;5068074;28;20475;-71
2022/07/11 00:27:16;;;;;;;2.20;1.90;;;13.80;99.90;;;;;;5068903;28;20477;-70
2022/07/11 00:29:43;;;;;;;2.03;1.83;;;13.80;99.90;;;;;;5069175;28;20458;-71
2022/07/11 00:32:10;;;;;;;4.10;2.50;;;13.90;99.90;;;;;;5069953;28;20474;-70
2022/07/11 00:34:36;;;;;;;1.70;1.60;;;13.90;99.90;;;;;;5069753;28;20489;-71
2022/07/11 00:37:03;;;;;;;2.43;1.80;;;14.00;99.90;;;;;;5069257;28;20477;-70
2022/07/11 00:39:30;;;;;;;2.00;1.50;;;14.00;99.90;;;;;;5068750;28;20474;-71
2022/07/11 00:41:58;;;;;;;2.13;1.60;;;14.00;99.90;;;;;;5090269;22;20576;-90
2022/07/11 00:44:25;;;;;;;2.40;1.47;;;14.10;99.90;;;;;;5077216;23;20490;-67
2022/07/11 00:46:53;;;;;;;2.00;1.53;;;14.10;99.90;;;;;;5069637;28;20482;-67
2022/07/11 00:49:21;;;;;;;2.23;1.97;;;14.10;99.90;;;;;;5070949;28;20462;-67
2022/07/11 00:51:48;;;;;;;1.97;1.70;;;14.10;99.90;;;;;;5072053;28;20557;-67
2022/07/11 00:54:17;;;;;;;2.40;2.20;;;14.10;99.90;;;;;;5071257;28;20466;-67
2022/07/11 00:56:45;;;;;;;4.17;1.73;;;14.10;99.90;;;;;;5071762;28;20486;-67
2022/07/11 00:59:14;;;;;;;2.20;2.00;;;14.10;99.90;;;;;;5071031;28;20458;-67
2022/07/11 01:01:40;;;;;;;2.23;2.00;;;14.10;99.90;;;;;;5071561;28;20477;-67
2022/07/11 01:04:07;;;;;;;1.80;1.70;;;14.10;99.90;;;;;;5069788;28;20462;-68
2022/07/11 01:06:34;;;;;;;2.10;1.90;;;14.10;99.90;;;;;;5071572;28;20455;-67
2022/07/11 01:09:01;;;;;;;4.67;2.60;;;14.10;99.90;;;;;;5071264;28;20467;-68
2022/07/11 01:11:28;;;;;;;1.97;1.77;;;14.10;99.90;;;;;;5070929;28;20458;-67
2022/07/11 01:13:55;;;;;;;2.20;2.00;;;14.00;99.90;;;;;;5071845;28;20463;-67
2022/07/11 01:16:23;;;;;;;2.27;1.83;;;14.00;99.90;;;;;;5071534;28;21131;-68
2022/07/11 01:18:52;;;;;;;2.57;2.37;;;14.00;99.90;;;;;;5071804;28;20462;-68
2022/07/11 01:21:27;;;;;;;2.13;1.93;;;14.00;99.90;;;;;;5071840;28;20470;-67
2022/07/11 01:23:56;;;;;;;2.20;1.80;;;14.00;99.90;;;;;;5071593;28;20972;-67
2022/07/11 01:26:25;;;;;;;2.33;2.07;;;14.00;99.90;;;;;;5071285;28;20470;-67
2022/07/11 01:28:52;;;;;;;2.43;2.17;;;14.00;99.90;;;;;;5071411;28;20463;-67
2022/07/11 01:31:19;;;;;;;2.77;1.90;;;14.00;99.90;;;;;;5070696;28;20489;-68
2022/07/11 01:33:47;;;;;;;2.80;2.23;;;14.00;99.90;;;;;;5071334;28;20466;-67
2022/07/11 01:36:13;;;;;;;2.30;2.10;;;14.00;99.90;;;;;;5070096;28;20489;-67
2022/07/11 01:38:40;;;;;;;3.67;1.97;;;14.00;99.90;;;;;;5071018;28;20459;-67
2022/07/11 01:41:08;;;;;;;2.53;2.33;;;14.00;99.90;;;;;;5070041;28;20466;-67
2022/07/11 01:43:35;;;;;;;2.37;2.00;;;14.00;99.90;;;;;;5071005;28;20829;-67
2022/07/11 01:46:02;;;;;;;2.40;2.03;;;14.00;99.90;;;;;;5070730;28;20482;-67
2022/07/11 01:48:29;;;;;;;3.27;2.10;;;14.00;99.90;;;;;;5071430;28;20465;-67
2022/07/11 01:50:55;;;;;;;3.03;2.37;;;14.00;99.90;;;;;;5070335;28;20459;-67
2022/07/11 01:53:22;;;;;;;2.40;2.20;;;14.00;99.90;;;;;;5070812;28;20509;-67
2022/07/11 01:55:49;;;;;;;2.60;2.00;;;14.00;99.90;;;;;;5070561;28;20898;-67
2022/07/11 01:58:17;;;;;;;2.60;2.10;;;14.00;99.90;;;;;;5070720;28;20458;-66
2022/07/11 02:00:44;;;;;;;2.27;2.10;;;13.90;99.90;;;;;;5070490;28;20466;-68
2022/07/11 02:03:10;;;;;;;1.93;1.80;;;13.90;99.90;;;;;;5070663;28;20451;-67
2022/07/11 02:05:39;;;;;;;2.40;2.20;;;13.90;99.90;;;;;;5068236;28;21013;-68
2022/07/11 02:08:13;;;;;;;2.43;2.23;;;13.90;99.90;;;;;;5070242;28;20838;-67
2022/07/11 02:10:44;;;;;;;3.50;2.37;;;13.90;99.90;;;;;;5070198;28;20457;-67
2022/07/11 02:13:12;;;;;;;3.87;2.20;;;13.90;99.90;;;;;;5070186;28;20459;-67
2022/07/11 02:15:41;;;;;;;3.13;2.13;;;13.90;99.90;;;;;;5070122;28;20489;-67
2022/07/11 02:18:09;;;;;;;2.90;2.60;;;13.90;99.90;;;;;;5070053;28;20470;-68
2022/07/11 02:20:37;;;;;;;2.97;2.30;;;13.90;99.90;;;;;;5070186;28;20489;-68
2022/07/11 02:23:04;;;;;;;2.50;2.30;;;13.90;99.90;;;;;;5070338;28;20463;-67
2022/07/11 02:25:31;;;;;;;2.40;2.20;;;13.90;99.90;;;;;;5070406;28;20618;-67
2022/07/11 02:27:58;;;;;;;2.47;2.03;;;13.80;99.90;;;;;;5069858;28;20536;-67
2022/07/11 02:30:26;;;;;;;2.40;2.20;;;13.90;99.90;;;;;;5069909;28;20454;-68
2022/07/11 02:32:54;;;;;;;2.60;2.23;;;13.80;99.90;;;;;;5070570;28;20554;-68
2022/07/11 02:35:21;;;;;;;2.23;2.10;;;13.80;99.90;;;;;;5069881;28;20509;-68
2022/07/11 02:37:48;;;;;;;1.87;1.77;;;13.80;99.90;;;;;;5070401;28;20454;-67
2022/07/11 02:40:15;;;;;;;2.20;2.00;;;13.80;99.90;;;;;;5069014;28;20511;-67
2022/07/11 02:42:42;;;;;;;2.60;2.40;;;13.80;99.90;;;;;;5070404;28;20462;-67
2022/07/11 02:45:09;;;;;;;2.83;2.57;;;13.80;99.90;;;;;;5069703;28;20486;-67
2022/07/11 02:47:38;;;;;;;2.70;2.50;;;13.80;99.90;;;;;;5070592;28;20902;-68
2022/07/11 02:50:08;;;;;;;3.37;2.90;;;13.90;99.90;;;;;;5069932;28;20946;-67
2022/07/11 02:52:35;;;;;;;2.60;2.27;;;13.90;99.90;;;;;;5073879;28;20968;-67
2022/07/11 02:55:01;;;;;;;2.50;2.30;;;13.80;99.90;;;;;;5073763;28;20508;-67
2022/07/11 02:57:29;;;;;;;3.40;2.60;;;13.90;99.90;;;;;;5073961;28;20490;-68
2022/07/11 02:59:55;;;;;;;2.73;2.30;;;13.90;99.90;;;;;;5073532;28;20818;-67
2022/07/11 03:02:22;;;;;;;4.53;2.60;;;13.90;99.90;;;;;;5073749;28;20459;-67
2022/07/11 03:04:49;;;;;;;4.63;2.50;;;13.90;99.90;;;;;;5073444;28;20572;-67
2022/07/11 03:07:17;;;;;;;2.83;2.63;;;13.90;99.90;;;;;;5073602;28;20455;-67
2022/07/11 03:09:44;;;;;;;2.87;2.67;;;13.90;99.90;;;;;;5073308;28;20458;-67
2022/07/11 03:12:11;;;;;;;4.37;2.40;;;13.90;99.90;;;;;;5073446;28;20532;-67
2022/07/11 03:14:37;;;;;;;3.10;2.30;;;14.00;99.90;;;;;;5073779;28;20493;-68
2022/07/11 03:17:05;;;;;;;3.33;2.40;;;14.00;99.90;;;;;;5073039;28;20493;-67
2022/07/11 03:19:32;;;;;;;2.80;2.30;;;14.00;99.90;;;;;;5073440;28;20458;-67
2022/07/11 03:21:58;;;;;;;2.30;2.00;;;14.00;99.90;;;;;;5073522;28;20837;-68
2022/07/11 03:24:26;;;;;;;2.60;2.40;;;14.00;99.90;;;;;;5073489;28;20489;-67
2022/07/11 03:26:53;;;;;;;3.50;2.67;;;14.00;99.90;;;;;;5073808;28;20455;-67
2022/07/11 03:29:19;;;;;;;3.13;2.93;;;14.00;99.90;;;;;;5072436;28;20465;-68
2022/07/11 03:31:46;;;;;;;4.30;2.27;;;14.00;99.90;;;;;;5073902;28;20458;-68
2022/07/11 03:34:13;;;;;;;2.50;2.30;;;14.00;99.90;;;;;;5073210;28;20454;-68
2022/07/11 03:36:40;;;;;;;4.37;2.63;;;14.00;99.90;;;;;;5073687;28;21015;-67
2022/07/11 03:39:06;;;;;;;2.43;2.23;;;14.00;99.90;;;;;;5072964;28;20458;-66
2022/07/11 03:41:34;;;;;;;4.03;2.53;;;14.00;99.90;;;;;;5073243;28;20482;-68
2022/07/11 03:44:01;;;;;;;2.47;2.17;;;14.00;99.90;;;;;;5073328;28;20859;-67
2022/07/11 03:46:28;;;;;;;3.17;2.63;;;14.10;99.90;;;;;;5073482;28;20466;-68
2022/07/11 03:48:55;;;;;;;2.47;2.27;;;14.10;99.90;;;;;;5073318;28;20462;-67
2022/07/11 03:51:21;;;;;;;2.73;2.53;;;14.10;99.90;;;;;;5072876;28;20458;-67
2022/07/11 03:53:48;;;;;;;2.33;2.13;;;14.20;99.90;;;;;;5073211;28;20816;-67
2022/07/11 03:56:16;;;;;;;2.97;2.50;;;14.20;99.90;;;;;;5073036;28;20565;-66
2022/07/11 03:58:44;;;;;;;2.50;2.30;;;14.20;99.90;;;;;;5073045;28;20455;-66
2022/07/11 04:01:11;;;;;;;3.03;2.73;;;14.20;99.90;;;;;;5071593;28;20454;-67
2022/07/11 04:03:38;;;;;;;4.10;2.60;;;14.20;99.90;;;;;;5072408;28;20458;-66
2022/07/11 04:06:05;;;;;;;3.03;2.83;;;14.30;99.90;;;;;;5072040;28;20478;-66
2022/07/11 04:08:32;;;;;;;2.80;2.60;;;14.30;99.90;;;;;;5072899;28;20462;-66
2022/07/11 04:10:59;;;;;;;3.13;2.83;;;14.30;99.90;;;;;;5074615;28;20481;-68
2022/07/11 04:13:26;;;;;;;2.87;2.60;;;14.40;99.90;;;;;;5073853;28;20459;-67
2022/07/11 04:15:54;;;;;;;2.50;2.27;;;14.40;99.90;;;;;;5072485;28;20482;-67
2022/07/11 04:18:20;;;;;;;3.37;3.03;;;14.40;99.90;;;;;;5071605;28;20458;-67
2022/07/11 04:20:49;;;;;;;3.07;2.87;;;14.40;99.90;;;;;;5061195;28;20460;-67
2022/07/11 04:23:15;;;;;;;3.50;3.20;;;14.50;99.90;;;;;;5061053;28;20805;-67
2022/07/11 04:25:43;;;;;;;2.53;2.33;;;14.50;99.90;;;;;;5060107;28;20994;-67
2022/07/11 04:28:09;;;;;;;3.20;2.97;;;14.60;99.90;;;;;;5050995;28;20559;-67
2022/07/11 04:30:36;;;;;;;2.90;2.70;;;14.60;99.90;;;;;;5067332;28;20798;-67
2022/07/11 04:33:04;;;;;;;3.57;3.00;;;14.70;99.90;;;;;;5071821;28;20841;-67
2022/07/11 04:35:31;;;;;;;3.10;2.87;;;14.70;99.90;;;;;;5072323;28;21009;-67
2022/07/11 04:37:58;;;;;;;3.93;3.00;;;14.70;99.90;;;;;;5072322;28;20567;-67
2022/07/11 04:40:25;;;;;;;3.00;2.70;;;14.70;99.90;;;;;;5072198;28;20465;-67
2022/07/11 04:42:52;;;;;;;4.03;2.97;;;14.80;99.90;;;;;;5072448;28;20467;-67
2022/07/11 04:45:19;;;;;;;5.07;3.13;;;14.80;99.90;;;;;;5072068;28;21019;-67
2022/07/11 04:47:46;;;;;;;3.67;3.37;;;14.80;99.90;;;;;;5072485;28;20459;-67
2022/07/11 04:50:14;;;;;;;3.40;3.10;;;14.90;99.90;;;;;;5071719;28;20465;-67
2022/07/11 04:52:42;;;;;;;3.33;3.13;;;14.90;99.90;;;;;;5070640;28;20466;-67
2022/07/11 04:55:10;;;;;;;3.00;2.80;;;14.90;99.90;;;;;;5071912;28;20483;-67
2022/07/11 04:57:36;;;;;;;4.73;4.13;;;15.00;99.90;;;;;;5071665;28;20494;-67
2022/07/11 05:00:05;;;;;;;4.33;3.93;;;15.00;99.90;;;;;;5070968;28;20839;-67
2022/07/11 05:02:33;;;;;;;4.53;4.10;;;15.00;99.90;;;;;;5071913;28;20851;-67
2022/07/11 05:05:00;;;;;;;5.60;4.73;;;15.00;99.90;;;;;;5071791;28;20485;-67
2022/07/11 05:07:28;;;;;;;5.83;4.00;;;15.10;99.90;;;;;;5071744;28;20458;-67
2022/07/11 05:09:54;;;;;;;4.20;3.83;;;15.10;99.90;;;;;;5070501;28;20459;-67
2022/07/11 05:12:21;;;;;;;4.10;3.80;;;15.20;99.90;;;;;;5071370;28;20984;-67
2022/07/11 05:14:49;;;;;;;4.10;3.80;;;15.20;99.90;;;;;;5071191;28;20834;-67
2022/07/11 05:17:15;;;;;;;5.10;4.60;;;15.30;99.90;;;;;;5071349;28;20482;-67
2022/07/11 05:19:42;;;;;;;5.50;5.00;;;15.30;99.90;;;;;;5071332;28;20508;-67
2022/07/11 05:22:09;;;;;;;4.60;4.30;;;15.30;99.90;;;;;;5070557;28;20465;-67
2022/07/11 05:24:37;;;;;;;4.50;4.10;;;15.30;99.90;;;;;;5071500;28;20996;-67
2022/07/11 05:27:04;;;;;;;4.17;3.77;;;15.40;99.90;;;;;;5071010;28;20458;-67
2022/07/11 05:29:31;;;;;;;4.57;4.17;;;15.40;99.90;;;;;;5070897;28;20463;-67
2022/07/11 05:31:58;;;;;;;4.13;3.73;;;15.50;99.90;;;;;;5071252;28;20467;-67
2022/07/11 05:34:25;;;;;;;4.50;4.10;;;15.50;99.90;;;;;;5070487;28;20486;-67
2022/07/11 05:36:52;;;;;;;4.87;4.37;;;15.50;99.90;;;;;;5071258;28;20881;-67
2022/07/11 05:39:19;;;;;;;6.63;4.70;;;15.60;99.90;;;;;;5070056;28;20553;-67
2022/07/11 05:41:47;;;;;;;5.00;4.60;;;15.70;99.90;;;;;;5071270;28;21181;-67
2022/07/11 05:44:13;;;;;;;4.67;4.27;;;15.70;99.90;;;;;;5070704;28;20471;-67
2022/07/11 05:46:40;;;;;;;4.50;4.10;;;15.80;99.90;;;;;;5070876;28;20463;-67
2022/07/11 05:49:08;;;;;;;4.17;3.73;;;15.80;99.90;;;;;;5070147;28;20466;-67
2022/07/11 05:51:36;;;;;;;4.50;4.00;;;15.90;99.90;;;;;;5070810;28;20449;-67
2022/07/11 05:54:02;;;;;;;4.40;4.00;;;15.90;99.90;;;;;;5070419;28;21007;-67
2022/07/11 05:56:29;;;;;;;4.73;3.97;;;16.00;99.90;;;;;;5070867;28;20487;-67
2022/07/11 05:58:58;;;;;;;4.13;3.83;;;16.00;99.90;;;;;;5070245;28;20458;-67
2022/07/11 06:01:25;;;;;;;4.30;3.40;;;16.10;99.90;;;;;;5070275;28;20533;-67
2022/07/11 06:03:52;;;;;;;5.30;3.80;;;16.10;99.90;;;;;;5070587;28;20469;-67
2022/07/11 06:06:19;;;;;;;4.10;3.77;;;16.10;99.90;;;;;;5070593;28;20493;-67
2022/07/11 06:08:45;;;;;;;4.10;3.80;;;16.20;99.90;;;;;;5070683;28;20463;-67
2022/07/11 06:11:14;;;;;;;4.27;3.97;;;16.20;99.90;;;;;;5069433;28;20454;-67
2022/07/11 06:13:42;;;;;;;3.83;3.53;;;16.20;99.90;;;;;;5070783;28;20461;-67
2022/07/11 06:16:10;;;;;;;4.43;4.03;;;16.30;99.90;;;;;;5070054;28;20475;-67
2022/07/11 06:18:39;;;;;;;4.23;3.90;;;16.30;99.90;;;;;;5070700;28;20857;-67
2022/07/11 06:21:06;;;;;;;3.77;3.47;;;16.40;99.90;;;;;;5069387;28;20876;-67
2022/07/11 06:23:34;;;;;;;4.10;3.80;;;16.40;99.90;;;;;;5070517;28;20454;-67
2022/07/11 06:26:01;;;;;;;4.43;3.87;;;16.50;99.90;;;;;;5069443;28;20549;-67
2022/07/11 06:28:28;;;;;;;3.83;3.53;;;16.50;99.90;;;;;;5070521;28;20465;-67
2022/07/11 06:30:55;;;;;;;3.50;3.20;;;16.50;99.90;;;;;;5070046;28;20454;-67
2022/07/11 06:33:23;;;;;;;4.80;4.07;;;16.50;99.90;;;;;;5069381;28;20465;-67
2022/07/11 06:35:50;;;;;;;4.43;3.77;;;16.60;99.90;;;;;;5070415;28;20485;-67
2022/07/11 06:38:17;;;;;;;4.40;4.00;;;16.60;99.90;;;;;;5069654;28;20518;-67
2022/07/11 06:40:45;;;;;;;3.93;3.63;;;16.70;99.90;;;;;;5069748;28;20860;-67
2022/07/11 06:43:12;;;;;;;3.90;3.60;;;16.70;99.90;;;;;;5069486;28;21064;-67
2022/07/11 06:45:39;;;;;;;4.00;3.70;;;16.70;99.90;;;;;;5069926;28;20483;-67
2022/07/11 06:48:06;;;;;;;4.87;3.97;;;16.80;99.90;;;;;;5069995;28;20961;-67
2022/07/11 06:50:36;;;;;;;3.90;3.60;;;16.90;99.90;;;;;;5069832;28;20836;-67
2022/07/11 06:53:03;;;;;;;4.13;3.73;;;16.90;99.90;;;;;;5069856;28;20462;-67
2022/07/11 06:55:30;;;;;;;4.20;3.80;;;16.90;99.90;;;;;;5070418;28;20871;-67
2022/07/11 06:57:56;;;;;;;3.60;3.30;;;17.00;99.90;;;;;;5069444;28;20490;-67
2022/07/11 07:00:23;;;;;;;3.27;3.07;;;17.00;99.90;;;;;;5069368;28;20834;-67
2022/07/11 07:02:50;;;;;;;3.40;3.10;;;17.10;99.90;;;;;;5068182;28;20465;-67
2022/07/11 07:05:17;;;;;;;3.43;3.13;;;17.20;99.90;;;;;;5059686;28;20520;-68
2022/07/11 07:07:45;;;;;;;3.30;3.00;;;17.30;99.90;;;;;;5058656;28;20458;-67
2022/07/11 07:10:12;;;;;;;3.93;3.23;;;17.30;99.90;;;;;;5059924;28;20868;-67
2022/07/11 07:12:39;;;;;;;2.77;2.43;;;17.40;99.90;;;;;;5070208;28;20481;-67
2022/07/11 07:15:07;;;;;;;3.03;2.80;;;17.40;99.90;;;;;;5069550;28;20506;-67
2022/07/11 07:17:34;;;;;;;2.53;2.33;;;17.50;99.90;;;;;;5070116;28;20486;-67
2022/07/11 07:20:01;;;;;;;3.00;2.37;;;17.50;99.90;;;;;;5069322;28;20462;-67
2022/07/11 07:22:28;;;;;;;2.90;2.50;;;17.60;99.90;;;;;;5069689;28;20470;-67
2022/07/11 07:24:56;;;;;;;2.50;2.30;;;17.70;99.90;;;;;;5070015;28;20482;-68
2022/07/11 07:27:22;;;;;;;2.30;2.10;;;17.70;99.90;;;;;;5069336;28;21092;-67
2022/07/11 07:29:49;;;;;;;2.57;2.37;;;17.80;99.90;;;;;;5069467;28;20896;-67
2022/07/11 07:32:16;;;;;;;2.40;2.17;;;17.90;99.90;;;;;;5069663;28;20462;-67
2022/07/11 07:34:42;;;;;;;2.13;1.93;;;18.00;99.90;;;;;;5069732;28;20985;-68
2022/07/11 07:37:09;;;;;;;1.83;1.60;;;18.00;99.90;;;;;;5071568;28;20485;-67
2022/07/11 07:39:36;;;;;;;2.50;2.30;;;18.10;99.90;;;;;;5072735;28;20466;-67
2022/07/11 07:42:04;;;;;;;2.00;1.90;;;18.10;99.90;;;;;;5073220;28;20462;-68
2022/07/11 07:44:31;;;;;;;2.53;1.90;;;18.20;99.90;;;;;;5073017;28;20490;-67
2022/07/11 07:46:58;;;;;;;2.07;1.87;;;18.30;99.90;;;;;;5072924;28;20514;-67
2022/07/11 07:49:24;;;;;;;2.40;2.20;;;18.30;99.90;;;;;;5072131;28;20462;-68
2022/07/11 07:51:51;;;;;;;2.13;1.93;;;18.40;99.90;;;;;;5073252;28;20833;-68
2022/07/11 07:54:18;;;;;;;1.93;1.83;;;18.60;99.90;;;;;;5072675;28;21823;-67
2022/07/11 07:56:45;;;;;;;3.40;2.00;;;18.60;99.90;;;;;;5073147;28;20459;-68
2022/07/11 07:59:13;;;;;;;2.40;1.77;;;18.70;99.90;;;;;;5071936;28;20469;-68
2022/07/11 08:01:41;;;;;;;2.13;1.93;;;18.60;99.90;;;;;;5070227;28;20454;-67
2022/07/11 08:04:09;;;;;;;2.20;2.00;;;18.60;99.90;;;;;;5073045;28;20458;-68
2022/07/11 08:06:37;;;;;;;2.87;1.83;;;18.50;99.90;;;;;;5072987;28;20458;-68
2022/07/11 08:09:05;;;;;;;1.80;1.70;;;18.60;99.90;;;;;;5072545;28;20466;-68
2022/07/11 08:11:32;;;;;;;1.63;1.53;;;18.60;99.90;;;;;;5072037;28;20462;-68
2022/07/11 08:14:00;;;;;;;1.63;1.53;;;18.60;99.90;;;;;;5072816;28;20470;-68
2022/07/11 08:16:29;;;;;;;1.90;1.60;;;18.70;99.90;;;;;;5069384;28;20466;-68
2022/07/11 08:18:57;;;;;;;2.33;1.90;;;18.70;99.90;;;;;;5071972;28;20550;-68
2022/07/11 08:21:23;;;;;;;1.87;1.70;;;18.70;99.90;;;;;;5071246;28;20966;-68
2022/07/11 08:23:50;;;;;;;1.90;1.80;;;18.70;99.90;;;;;;5071319;28;20473;-68
2022/07/11 08:26:17;;;;;;;2.00;1.80;;;18.80;99.90;;;;;;5071900;28;20486;-68
2022/07/11 08:28:43;;;;;;;2.03;1.83;;;18.90;99.90;;;;;;5071901;28;20458;-67
2022/07/11 08:31:10;;;;;;;2.00;1.80;;;19.00;99.90;;;;;;5070926;28;20560;-68
2022/07/11 08:33:38;;;;;;;1.60;1.50;;;19.20;99.90;;;;;;5071721;28;20471;-68
2022/07/11 08:36:06;;;;;;;2.43;1.70;;;19.40;99.90;;;;;;5071273;28;20489;-68
2022/07/11 08:38:32;;;;;;;2.07;1.63;;;19.70;99.90;;;;;;5071870;28;20850;-67
2022/07/11 08:40:59;;;;;;;1.60;1.50;;;19.90;99.90;;;;;;5072068;28;20541;-68
2022/07/11 08:43:28;;;;;;;1.77;1.67;;;20.00;99.90;;;;;;5071588;28;20865;-68
2022/07/11 08:45:55;;;;;;;1.80;1.70;;;20.20;99.90;;;;;;5071801;28;20506;-68
2022/07/11 08:48:23;;;;;;;1.77;1.60;;;20.30;99.90;;;;;;5070511;28;20836;-68
2022/07/11 08:50:52;;;;;;;2.10;1.47;;;20.40;99.90;;;;;;5071370;28;20465;-68
2022/07/11 08:53:19;;;;;;;2.13;1.50;;;20.50;99.90;;;;;;5064702;28;20459;-68
2022/07/11 08:55:47;;;;;;;1.80;1.70;;;20.50;99.90;;;;;;5067435;28;20819;-68
2022/07/11 08:58:15;;;;;;;2.00;1.90;;;20.50;99.90;;;;;;5070681;28;20486;-68
2022/07/11 09:00:43;;;;;;;3.83;1.70;;;20.30;99.90;;;;;;5070165;28;20466;-68
2022/07/11 09:03:15;;;;;;;1.50;1.40;;;20.20;99.90;;;;;;5070268;28;20676;-70
2022/07/11 09:05:42;;;;;;;1.50;1.40;;;20.10;99.90;;;;;;5070889;28;20478;-70
2022/07/11 09:08:11;;;;;;;1.70;1.53;;;20.10;99.90;;;;;;5070604;28;20466;-70
2022/07/11 09:10:39;;;;;;;3.73;1.50;;;20.10;99.90;;;;;;5069281;28;20557;-70
2022/07/11 09:13:08;;;;;;;2.27;1.50;;;20.00;99.90;;;;;;5070578;28;20454;-70
2022/07/11 09:15:37;;;;;;;1.90;1.43;;;20.00;99.90;;;;;;5071297;28;20841;-70
2022/07/11 09:18:05;;;;;;;2.00;1.50;;;20.00;99.90;;;;;;5070193;28;20536;-70
2022/07/11 09:26:23;;;;;;;1.70;1.60;;;20.10;99.90;;;;;;5070241;28;20462;-70
2022/07/11 09:29:03;;;;;;;2.03;1.53;;;20.10;99.90;;;;;;5070480;28;20451;-70
2022/07/11 09:31:31;;;;;;;2.50;1.73;;;20.10;99.90;;;;;;5070470;28;20512;-70
2022/07/11 09:33:59;;;;;;;1.87;1.60;;;20.10;99.90;;;;;;5070437;28;20454;-70
2022/07/11 09:36:36;;;;;;;2.80;1.50;;;20.00;99.90;;;;;;5070362;28;20466;-70
2022/07/11 09:39:05;;;;;;;1.90;1.80;;;20.10;99.90;;;;;;5068747;28;20615;-70
2022/07/11 09:41:34;;;;;;;1.70;1.50;;;20.20;99.90;;;;;;5070228;28;20458;-70
2022/07/11 09:44:14;;;;;;;1.60;1.50;;;20.30;99.90;;;;;;5070866;28;20467;-70
2022/07/11 09:46:42;;;;;;;1.70;1.60;;;20.40;99.90;;;;;;5071283;28;20462;-70
2022/07/11 09:49:09;;;;;;;1.20;1.10;;;20.50;99.90;;;;;;5070000;28;20459;-70
2022/07/11 09:51:37;;;;;;;1.67;1.57;;;20.50;99.90;;;;;;5070980;28;20721;-70
2022/07/11 09:54:07;;;;;;;1.87;1.77;;;20.60;99.90;;;;;;5070835;28;20490;-70
2022/07/11 09:56:35;;;;;;;1.87;1.53;;;20.70;99.90;;;;;;5070609;28;20466;-70
2022/07/11 09:59:04;;;;;;;1.90;1.63;;;20.80;99.90;;;;;;5070606;28;20486;-70
2022/07/11 10:01:31;;;;;;;1.60;1.50;;;20.90;99.90;;;;;;5069891;28;20459;-70
2022/07/11 10:03:59;;;;;;;1.80;1.70;;;21.00;99.90;;;;;;5064754;28;20463;-70
2022/07/11 10:06:26;;;;;;;2.07;1.60;;;21.10;99.90;;;;;;5068541;28;21162;-70
2022/07/11 10:08:54;;;;;;;1.70;1.57;;;21.20;99.90;;;;;;5070312;28;20457;-70
2022/07/11 10:11:22;;;;;;;2.10;1.90;;;21.20;99.90;;;;;;5069183;28;20972;-70
2022/07/11 10:13:49;;;;;;;1.60;1.50;;;21.30;99.90;;;;;;5069409;28;20474;-70
2022/07/11 10:16:26;;;;;;;2.83;2.10;;;21.50;99.90;;;;;;5070377;28;20486;-70
2022/07/11 10:19:03;;;;;;;2.27;1.67;;;21.70;99.90;;;;;;5069416;28;20478;-70
2022/07/11 10:21:36;;;;;;;1.90;1.60;;;21.60;99.90;;;;;;5070189;28;20462;-70
2022/07/11 10:24:10;;;;;;;4.10;1.63;;;21.40;99.90;;;;;;5069644;28;20463;-70
2022/07/11 10:26:47;;;;;;;2.20;1.80;;;21.30;99.90;;;;;;5069390;28;20462;-70
2022/07/11 10:29:18;;;;;;;1.70;1.60;;;21.10;99.90;;;;;;5069972;28;20512;-70
2022/07/11 10:31:48;;;;;;;1.60;1.50;;;21.00;99.90;;;;;;5069717;28;20482;-70
2022/07/11 10:34:18;;;;;;;1.83;1.73;;;21.00;99.90;;;;;;5069534;28;20465;-70
2022/07/11 10:36:46;;;;;;;2.00;1.90;;;21.10;99.90;;;;;;5070237;28;20463;-70
2022/07/11 10:39:24;;;;;;;1.67;1.50;;;21.20;99.90;;;;;;5068126;28;21034;-70
2022/07/11 10:41:53;;;;;;;2.00;1.50;;;21.40;99.90;;;;;;5070237;28;21217;-70
2022/07/11 10:44:20;;;;;;;2.17;1.90;;;21.50;99.90;;;;;;5069276;28;21035;-70
2022/07/11 10:46:46;;;;;;;3.10;1.60;;;21.70;99.90;;;;;;5069978;28;20469;-70
2022/07/11 10:49:19;;;;;;;1.60;1.50;;;22.00;99.90;;;;;;5069139;28;20469;-70
2022/07/11 10:51:55;;;;;;;1.67;1.43;;;22.20;99.90;;;;;;5068302;28;21028;-70
2022/07/11 10:54:32;;;;;;;1.33;1.20;;;22.30;99.90;;;;;;5073553;28;20556;-70
2022/07/11 10:57:13;;;;;;;1.73;1.50;;;22.40;99.90;;;;;;5090539;28;20825;-70
2022/07/11 10:59:58;;;;;;;1.93;1.30;;;22.50;99.90;;;;;;5089294;28;20976;-70
2022/07/11 11:02:25;;;;;;;2.33;1.40;;;22.50;99.90;;;;;;5089235;28;20537;-70
2022/07/11 11:04:57;;;;;;;1.70;1.60;;;22.40;99.90;;;;;;5089739;28;20469;-70
2022/07/11 11:07:36;;;;;;;1.60;1.50;;;22.30;99.90;;;;;;5090132;28;20453;-70
2022/07/11 11:10:06;;;;;;;1.60;1.50;;;22.20;99.90;;;;;;5089194;28;20453;-70
2022/07/11 11:13:14;;;;;;;1.57;1.37;;;22.20;99.90;;;;;;5093231;28;20450;-70
2022/07/11 11:15:42;;;;;;;1.97;1.77;;;22.20;99.90;;;;;;5060215;28;20475;-70
2022/07/11 11:18:34;;;;;;;1.40;1.30;;;22.10;99.90;;;;;;5072121;28;20482;-70
2022/07/11 11:21:20;;;;;;;1.43;1.33;;;22.10;99.90;;;;;;5073457;28;20465;-70
2022/07/11 11:24:02;;;;;;;1.70;1.60;;;22.10;99.90;;;;;;5073125;28;20458;-70
2022/07/11 11:26:53;;;;;;;1.60;1.50;;;22.20;99.90;;;;;;5072825;28;20469;-70
2022/07/11 11:29:29;;;;;;;1.40;1.30;;;22.20;99.90;;;;;;5072878;28;20832;-71
2022/07/11 11:31:59;;;;;;;1.63;1.50;;;22.10;99.90;;;;;;5073181;28;20458;-70
2022/07/11 11:34:27;;;;;;;1.90;1.43;;;22.10;99.90;;;;;;5072237;28;20485;-70
2022/07/11 11:36:59;;;;;;;1.60;1.47;;;22.10;99.90;;;;;;5073157;28;20458;-70
2022/07/11 11:39:28;;;;;;;1.67;1.57;;;22.20;99.90;;;;;;5071446;28;20514;-70
2022/07/11 11:41:55;;;;;;;2.93;1.63;;;22.20;99.90;;;;;;5072878;28;20857;-70
2022/07/11 11:44:21;;;;;;;2.10;1.90;;;22.30;99.90;;;;;;5072664;28;20856;-70
2022/07/11 11:46:52;;;;;;;1.53;1.40;;;22.40;99.90;;;;;;5072940;28;20465;-70
2022/07/11 11:49:19;;;;;;;1.80;1.67;;;22.50;99.90;;;;;;5071588;28;20508;-70
2022/07/11 11:51:47;;;;;;;1.47;1.37;;;22.50;99.90;;;;;;5072347;28;20946;-70
2022/07/11 11:54:23;;;;;;;1.93;1.67;;;22.50;99.90;;;;;;5072409;28;20466;-70
2022/07/11 11:56:50;;;;;;;3.20;1.90;;;22.40;99.90;;;;;;5073115;28;20464;-70
2022/07/11 11:59:16;;;;;;;2.10;1.90;;;22.30;99.90;;;;;;5071902;28;20482;-70
2022/07/11 12:01:47;;;;;;;1.60;1.50;;;22.40;99.90;;;;;;5072560;28;20470;-69
2022/07/11 12:04:16;;;;;;;2.80;1.63;;;22.40;99.90;;;;;;5070678;28;20454;-70
2022/07/11 12:06:46;;;;;;;1.80;1.70;;;22.40;99.90;;;;;;5070783;28;20458;-70
2022/07/11 12:11:42;;;;;;;1.90;1.63;;;22.50;99.90;;;;;;5031248;28;20968;-69
2022/07/11 12:14:11;;;;;;;2.27;2.07;;;22.60;99.90;;;;;;5032723;28;20463;-69
2022/07/11 12:16:42;;;;;;;1.73;1.63;;;22.80;99.90;;;;;;5033069;28;20479;-70
2022/07/11 12:19:11;;;;;;;2.43;1.63;;;23.10;99.90;;;;;;5032107;28;20491;-69
2022/07/11 12:21:40;;;;;;;1.77;1.63;;;23.40;99.90;;;;;;5032298;28;20471;-70
2022/07/11 12:24:10;;;;;;;2.30;2.10;;;23.30;99.50;;;;;;5030163;28;20853;-69
2022/07/11 12:26:39;;;;;;;2.23;1.80;;;23.20;99.90;;;;;;5031619;28;20491;-68
2022/07/11 12:29:08;;;;;;;1.40;1.30;;;23.00;99.90;;;;;;5031213;28;20825;-68
2022/07/11 12:31:43;;;;;;;1.90;1.80;;;22.90;99.90;;;;;;5031547;28;20886;-69
2022/07/11 12:34:09;;;;;;;2.10;1.90;;;22.80;99.90;;;;;;5030996;28;20467;-69
2022/07/11 12:36:36;;;;;;;2.10;1.63;;;22.70;99.90;;;;;;5031388;28;20461;-70
2022/07/11 12:39:05;;;;;;;1.80;1.70;;;22.80;99.90;;;;;;5032253;28;20480;-70
2022/07/11 12:41:32;;;;;;;1.97;1.87;;;22.90;99.90;;;;;;5032306;28;20559;-70
2022/07/11 12:46:43;;;;;;;1.87;1.77;;;23.40;99.90;;;;;;5032563;28;20524;-69
2022/07/11 12:49:12;;;;;;;2.30;2.10;;;23.50;99.90;;;;;;5032072;28;20495;-70
2022/07/11 12:51:40;;;;;;;2.43;1.70;;;23.40;99.90;;;;;;5032463;28;20456;-69
2022/07/11 12:54:09;;;;;;;2.13;2.00;;;23.30;99.90;;;;;;5032069;28;20468;-69
2022/07/11 12:56:37;;;;;;;2.10;1.63;;;23.30;99.90;;;;;;5032397;28;20467;-70
2022/07/11 12:59:05;;;;;;;1.80;1.67;;;23.20;99.90;;;;;;5032077;28;20480;-69
2022/07/11 13:01:32;;;;;;;1.87;1.77;;;23.10;99.90;;;;;;5032252;28;20561;-69
2022/07/11 13:04:00;;;;;;;1.93;1.80;;;23.10;99.90;;;;;;5031873;28;20467;-70